Terminal Aerodrome Forecast
Issued by NWS Twin Cities, MN

Home | Current Version | Previous Version | Text Only | Print | Product List | Glossary Off
Versions: 1 2 3 4 5 6 7 8 9 10 11 12 13 14 15 16

000
FTUS43 KMPX 220500
TAFEAU
TAF
KEAU 220520Z 2206/2306 31012KT P6SM SKC
     FM220900 32006KT P6SM SKC
     FM221400 33013KT P6SM SKC
     FM222000 35009KT P6SM FEW250
     FM230200 06006KT P6SM SCT250=

USA.gov is the U.S. government's official web portal to all federal, state and local government web resources and services.